This is the latest recevied weather packets stored in our database for station/object WX4ET. If no packets are shown the sender has not sent any weather packets the latest 10 day(s).
| Time | Temp. | Humidity | Pressure | Rain* | Wind** | Luminosity | Snow |
|---|---|---|---|---|---|---|---|
| 1777586019 | 20.56° C | 42% | 1007.3 hPa | 0 mm | - | 248 W/m² | - |
| 1777585713 | 20.56° C | 44% | 1007.5 hPa | 0 mm | - | 307 W/m² | - |
| 1777585413 | 20.56° C | 41% | 1007.4 hPa | 0 mm | - | 333 W/m² | - |
| 1777585108 | 20° C | 42% | 1007.3 hPa | 0 mm | - | 343 W/m² | - |
| 1777584805 | 20° C | 41% | 1007.4 hPa | 0 mm | - | 348 W/m² | - |
| 1777584503 | 20° C | 40% | 1007.5 hPa | 0 mm | - | 367 W/m² | - |
| 1777584199 | 21.67° C | 39% | 1007.5 hPa | 0 mm | - | 383 W/m² | - |
| 1777583898 | 21.67° C | 40% | 1007.6 hPa | 0 mm | - | 392 W/m² | - |
| 1777583594 | 21.11° C | 41% | 1007.7 hPa | 0 mm | - | 408 W/m² | - |
| 1777583293 | 20.56° C | 41% | 1007.6 hPa | 0 mm | - | 413 W/m² | - |
| 1777582988 | 20.56° C | 40% | 1007.5 hPa | 0 mm | - | 433 W/m² | - |
| 1777582686 | 20.56° C | 42% | 1007.7 hPa | 0 mm | - | 433 W/m² | - |
| 1777582380 | 21.11° C | 40% | 1007.7 hPa | 0 mm | - | 454 W/m² | - |
| 1777582079 | 20.56° C | 44% | 1007.6 hPa | 0 mm | - | 479 W/m² | - |
| 1777581774 | 20.56° C | 42% | 1007.6 hPa | 0 mm | - | 465 W/m² | - |
| 1777581473 | 20.56° C | 42% | 1007.6 hPa | 0 mm | - | 488 W/m² | - |
| 1777581168 | 20.56° C | 42% | 1007.5 hPa | 0 mm | - | 523 W/m² | - |
| 1777580868 | 20° C | 44% | 1007.8 hPa | 0 mm | - | 513 W/m² | - |
| 1777580563 | 20.56° C | 40% | 1007.6 hPa | 0 mm | - | 527 W/m² | - |
| 1777580259 | 20.56° C | 42% | 1007.6 hPa | 0 mm | - | 516 W/m² | - |
| 1777579956 | 20.56° C | 42% | 1007.7 hPa | 0 mm | - | 546 W/m² | - |
| 1777579651 | 20° C | 42% | 1007.5 hPa | 0 mm | - | 548 W/m² | - |
| 1777579350 | 20.56° C | 42% | 1007.8 hPa | 0 mm | - | 550 W/m² | - |
| 1777579046 | 20° C | 44% | 1007.8 hPa | 0 mm | - | 555 W/m² | - |
| 1777578741 | 20.56° C | 41% | 1007.8 hPa | 0 mm | - | 570 W/m² | - |
* Rain latest hour (hover to see other rain measurements)
** Current wind speed in m/s (hover to see current wind gust speed)